Aviation Digital Data Service (ADDS)

Output produced by METARs form (2009 UTC 28 May 2015)
found at http://aviationweather.gov/adds/metars/
 
KAEX 281953Z AUTO 13004KT 10SM CLR 31/21 A3003 RMK AO2 SLP172 T03060206